KSUX/SUX METAR and TAF weather

Enter ICAO airport designator
Station Type Date Time Source
KSUX METAR 2020/11/25 22:52 UTC NOAA

KSUX 252252Z 22003KT 10SM OVC009 00/M02 A2991 RMK AO2 SLP139 T00001022


Station Type Date Time Source
KSUX Decoded METAR 2020/11/25 22:52 UTC NOAA

SIOUX GATEWAY AIRPORT, IA, United States (KSUX) 42-23N 96-23W 338M
Nov 25, 2020 - 05:52 PM EST / 2020.11.25 2252 UTC
Wind: from the SW (220 degrees) at 3 MPH (3 KT):0
Visibility: 10 mile(s):0
Sky conditions: overcast
Temperature: 32.0 F (0.0 C)
Dew Point: 28.0 F (-2.2 C)
Relative Humidity: 85%
Pressure (altimeter): 29.91 in. Hg (1012 hPa)
ob: KSUX 252252Z 22003KT 10SM OVC009 00/M02 A2991 RMK AO2 SLP139 T00001022
cycle: 23

Station Type Date Time Source
KSUX TAF 2020/11/25 18:22 UTC NOAA

TAF KSUX 251720Z 2518/2618 34005KT P6SM OVC012
FM252200 25005KT P6SM BKN009
FM252300 20005KT P6SM SCT011
FM260800 14009KT P6SM FEW007
FM261200 19008KT P6SM FEW007
FM261600 29010G18KT P6SM SKC

Example: see airport list